createdAt,value
2023-03-26T00:01:55.163Z,14.43
2023-03-26T00:04:25.823Z,14.37
2023-03-26T00:06:54.213Z,14.30
2023-03-26T00:09:21.969Z,14.22
2023-03-26T00:11:49.517Z,14.15
2023-03-26T00:14:17.999Z,14.12
2023-03-26T00:16:53.791Z,14.13
2023-03-26T00:19:22.586Z,14.12
2023-03-26T00:21:51.641Z,14.14
2023-03-26T00:24:19.746Z,14.04
2023-03-26T00:26:53.673Z,13.99
2023-03-26T00:29:22.977Z,13.85
2023-03-26T00:31:51.188Z,13.79
2023-03-26T00:34:19.348Z,13.77
2023-03-26T00:36:47.343Z,13.80
2023-03-26T00:39:15.355Z,13.77
2023-03-26T00:41:43.352Z,13.68
2023-03-26T00:44:10.504Z,13.39
2023-03-26T00:46:38.089Z,13.12
2023-03-26T00:49:05.937Z,12.89
2023-03-26T00:51:34.427Z,12.73
2023-03-26T00:54:02.355Z,12.64
2023-03-26T00:56:30.042Z,12.62
2023-03-26T00:58:57.894Z,12.66
2023-03-26T01:01:29.269Z,12.73
2023-03-26T01:04:08.398Z,12.63
2023-03-26T01:06:36.642Z,12.45
2023-03-26T01:09:16.397Z,12.51
2023-03-26T01:11:43.154Z,12.64
2023-03-26T01:14:34.929Z,12.74
2023-03-26T01:17:02.938Z,12.77
2023-03-26T01:19:38.215Z,12.76
2023-03-26T01:22:09.713Z,12.80
2023-03-26T01:24:38.217Z,12.86
2023-03-26T01:27:12.837Z,12.91
2023-03-26T01:29:48.299Z,12.93
2023-03-26T01:32:53.582Z,12.88
2023-03-26T01:35:39.035Z,12.88
2023-03-26T01:38:27.869Z,12.82
2023-03-26T01:41:07.096Z,12.85
2023-03-26T01:43:45.001Z,12.81
2023-03-26T01:46:12.739Z,12.78
2023-03-26T01:48:44.706Z,12.73
2023-03-26T01:51:12.651Z,12.66
2023-03-26T01:53:42.669Z,12.59
2023-03-26T01:56:12.911Z,12.56
2023-03-26T01:59:05.744Z,12.49
2023-03-26T02:01:46.192Z,12.49
2023-03-26T02:04:34.702Z,12.51
2023-03-26T02:07:12.944Z,12.54
2023-03-26T02:09:45.973Z,12.52
2023-03-26T02:12:14.504Z,12.50
2023-03-26T02:14:43.085Z,12.53
2023-03-26T02:17:11.500Z,12.53
2023-03-26T02:19:42.330Z,12.50
2023-03-26T02:22:15.692Z,12.38
2023-03-26T02:24:44.321Z,12.22
2023-03-26T02:27:12.493Z,12.13
2023-03-26T02:29:39.947Z,12.06
2023-03-26T02:32:08.136Z,11.93
2023-03-26T02:34:37.046Z,11.78
2023-03-26T02:37:06.851Z,11.65
2023-03-26T02:39:34.843Z,11.57
2023-03-26T02:42:03.152Z,11.54
2023-03-26T02:44:31.063Z,11.57
2023-03-26T02:46:59.548Z,11.55
2023-03-26T02:49:27.623Z,11.45
2023-03-26T02:51:56.523Z,11.33
2023-03-26T02:54:24.868Z,11.20
2023-03-26T02:56:52.964Z,11.09
2023-03-26T02:59:20.924Z,11.03
2023-03-26T03:01:48.845Z,11.01
2023-03-26T03:04:20.761Z,11.01
2023-03-26T03:06:53.095Z,10.98
2023-03-26T03:09:21.458Z,10.92
2023-03-26T03:11:49.559Z,10.85
2023-03-26T03:14:17.600Z,10.87
2023-03-26T03:16:45.461Z,10.92
2023-03-26T03:19:13.779Z,11.00
2023-03-26T03:21:42.440Z,11.07
2023-03-26T03:24:11.855Z,11.13
2023-03-26T03:26:41.278Z,11.26
2023-03-26T03:29:09.627Z,11.31
2023-03-26T03:31:37.738Z,11.34
2023-03-26T03:34:05.311Z,11.34
2023-03-26T03:36:33.485Z,11.33
2023-03-26T03:39:02.764Z,11.31
2023-03-26T03:41:31.180Z,11.33
2023-03-26T03:43:59.975Z,11.35
2023-03-26T03:46:27.489Z,11.36
2023-03-26T03:48:55.405Z,11.35
2023-03-26T03:51:23.745Z,11.26
2023-03-26T03:53:52.847Z,11.11
2023-03-26T03:56:24.303Z,11.01
2023-03-26T03:58:52.108Z,10.88
2023-03-26T04:01:23.052Z,10.69
2023-03-26T04:03:51.648Z,10.65
2023-03-26T04:06:20.224Z,10.56
2023-03-26T04:08:48.508Z,10.55
2023-03-26T04:11:16.208Z,10.61
2023-03-26T04:13:44.285Z,10.63
2023-03-26T04:16:12.386Z,10.66
2023-03-26T04:18:40.721Z,10.71
2023-03-26T04:21:08.401Z,10.68
2023-03-26T04:23:36.582Z,10.61
2023-03-26T04:26:07.151Z,10.52
2023-03-26T04:28:42.340Z,10.46
2023-03-26T04:31:11.814Z,10.47
2023-03-26T04:33:42.197Z,10.36
2023-03-26T04:36:10.823Z,10.24
2023-03-26T04:38:41.239Z,10.25
2023-03-26T04:41:11.887Z,10.21
2023-03-26T04:43:42.651Z,10.20
2023-03-26T04:46:10.706Z,10.10
2023-03-26T04:48:38.780Z,10.06
2023-03-26T04:51:07.426Z,9.98
2023-03-26T04:53:35.166Z,10.13
2023-03-26T04:56:24.930Z,10.16
2023-03-26T04:58:57.008Z,10.08
2023-03-26T05:01:28.437Z,9.90
2023-03-26T05:03:57.311Z,9.84
2023-03-26T05:06:26.171Z,9.89
2023-03-26T05:08:54.682Z,9.94
2023-03-26T05:11:22.400Z,9.95
2023-03-26T05:13:50.421Z,9.98
2023-03-26T05:16:17.654Z,9.88
2023-03-26T05:18:46.635Z,9.85
2023-03-26T05:21:14.666Z,9.87
2023-03-26T05:23:42.137Z,9.93
2023-03-26T05:26:11.129Z,10.04
2023-03-26T05:28:39.255Z,10.00
2023-03-26T05:31:08.623Z,10.04
2023-03-26T05:33:36.331Z,10.06
2023-03-26T05:36:05.683Z,10.08
2023-03-26T05:38:33.796Z,10.12
2023-03-26T05:41:02.456Z,10.12
2023-03-26T05:43:30.409Z,10.12
2023-03-26T05:45:58.747Z,10.24
2023-03-26T05:48:27.025Z,10.41
2023-03-26T05:50:56.891Z,10.57
2023-03-26T05:53:24.844Z,10.74
2023-03-26T05:55:59.070Z,10.89
2023-03-26T05:58:27.508Z,11.02
2023-03-26T06:00:59.401Z,11.14
2023-03-26T06:03:27.623Z,11.27
2023-03-26T06:05:55.573Z,11.29
2023-03-26T06:08:23.254Z,11.30
2023-03-26T06:10:53.544Z,11.36
2023-03-26T06:13:21.437Z,11.43
2023-03-26T06:15:49.254Z,11.52
2023-03-26T06:18:17.894Z,11.65
2023-03-26T06:20:45.417Z,11.73
2023-03-26T06:23:13.573Z,11.82
2023-03-26T06:25:41.546Z,11.95
2023-03-26T06:28:09.912Z,12.03
2023-03-26T06:30:38.510Z,12.12
2023-03-26T06:33:06.769Z,12.22
2023-03-26T06:35:34.747Z,12.36
2023-03-26T06:38:02.255Z,12.47
2023-03-26T06:40:30.140Z,12.64
2023-03-26T06:43:08.051Z,12.80
2023-03-26T06:45:38.619Z,12.99
2023-03-26T06:48:08.321Z,13.10
2023-03-26T06:50:36.765Z,13.23
2023-03-26T06:53:07.934Z,13.39
2023-03-26T06:55:36.207Z,13.51
2023-03-26T06:58:04.209Z,13.60
2023-03-26T07:00:31.926Z,13.70
2023-03-26T07:03:00.175Z,13.77
2023-03-26T07:05:28.201Z,13.91
2023-03-26T07:07:56.128Z,14.04
2023-03-26T07:10:23.578Z,14.15
2023-03-26T07:12:51.535Z,14.23
2023-03-26T07:15:19.257Z,14.37
2023-03-26T07:17:47.678Z,14.54
2023-03-26T07:20:15.574Z,14.69
2023-03-26T07:22:44.173Z,14.85
2023-03-26T07:25:16.621Z,15.07
2023-03-26T07:28:02.226Z,15.16
2023-03-26T07:30:47.601Z,15.24
2023-03-26T07:33:19.804Z,15.31
2023-03-26T07:35:47.842Z,15.27
2023-03-26T07:38:30.147Z,15.35
2023-03-26T07:41:04.366Z,15.35
2023-03-26T07:43:50.001Z,15.32
2023-03-26T07:46:18.312Z,15.32
2023-03-26T07:48:50.386Z,15.36
2023-03-26T07:51:18.786Z,15.47
2023-03-26T07:53:47.522Z,15.56
2023-03-26T07:56:22.673Z,15.66
2023-03-26T07:59:13.572Z,15.83
2023-03-26T08:02:13.506Z,15.97
2023-03-26T08:05:05.511Z,16.20
2023-03-26T08:08:16.703Z,16.46
2023-03-26T08:11:14.223Z,16.66
2023-03-26T08:14:03.471Z,16.77
2023-03-26T08:16:48.644Z,16.87
2023-03-26T08:19:33.905Z,16.95
2023-03-26T08:22:28.008Z,16.92
2023-03-26T08:25:22.539Z,16.92
2023-03-26T08:28:03.278Z,16.94
2023-03-26T08:30:32.050Z,16.98
2023-03-26T08:33:11.573Z,17.15
2023-03-26T08:35:42.524Z,17.30
2023-03-26T08:38:11.575Z,17.39
2023-03-26T08:41:19.406Z,17.54
2023-03-26T08:44:41.580Z,17.62
2023-03-26T08:47:08.580Z,17.69
2023-03-26T08:49:52.165Z,17.88
2023-03-26T08:52:33.762Z,18.05
2023-03-26T08:55:16.468Z,18.15
2023-03-26T08:58:09.636Z,18.06
2023-03-26T09:00:55.310Z,18.22
2023-03-26T09:04:06.283Z,18.33
2023-03-26T09:06:59.260Z,18.51
2023-03-26T09:09:52.381Z,18.71
2023-03-26T09:12:39.197Z,18.90
2023-03-26T09:15:05.883Z,19.03
2023-03-26T09:17:58.208Z,19.14
2023-03-26T09:20:45.497Z,19.28
2023-03-26T09:23:21.271Z,19.36
2023-03-26T09:25:48.222Z,19.41
2023-03-26T09:28:52.453Z,19.57
2023-03-26T09:31:38.018Z,19.73
2023-03-26T09:34:07.942Z,19.79
2023-03-26T09:36:57.569Z,19.84
2023-03-26T09:39:47.482Z,19.83
2023-03-26T09:42:39.057Z,19.83
2023-03-26T09:45:21.114Z,19.85
2023-03-26T09:47:50.842Z,19.94
2023-03-26T09:50:42.424Z,20.05
2023-03-26T09:53:45.899Z,20.09
2023-03-26T09:56:44.192Z,20.11
2023-03-26T09:59:23.698Z,20.25
2023-03-26T10:02:12.311Z,20.34
2023-03-26T10:04:45.024Z,20.36
2023-03-26T10:07:37.264Z,20.38
2023-03-26T10:10:40.973Z,20.51
2023-03-26T10:13:14.910Z,20.60
2023-03-26T10:15:57.522Z,20.62
2023-03-26T10:18:39.664Z,20.71
2023-03-26T10:21:31.207Z,20.76
2023-03-26T10:24:10.496Z,20.92
2023-03-26T10:27:08.419Z,20.98
2023-03-26T10:29:58.627Z,21.10
2023-03-26T10:33:13.347Z,21.15
2023-03-26T10:35:42.618Z,21.25
2023-03-26T10:38:38.278Z,21.23
2023-03-26T10:41:17.578Z,21.17
2023-03-26T10:44:15.313Z,20.91
2023-03-26T10:47:08.623Z,20.85
2023-03-26T10:49:49.209Z,20.84
2023-03-26T10:52:24.652Z,20.80
2023-03-26T10:54:55.830Z,20.71
2023-03-26T10:57:53.846Z,20.47
2023-03-26T11:00:27.668Z,20.30
2023-03-26T11:03:09.756Z,20.76
2023-03-26T11:05:45.792Z,21.66
2023-03-26T11:08:36.857Z,22.90
2023-03-26T11:11:12.448Z,24.13
2023-03-26T11:13:47.849Z,25.15
2023-03-26T11:16:32.101Z,26.03
2023-03-26T11:19:21.196Z,26.30
2023-03-26T11:21:54.190Z,26.54
2023-03-26T11:24:29.888Z,27.11
2023-03-26T11:27:15.508Z,27.19
2023-03-26T11:29:46.017Z,26.87
2023-03-26T11:32:28.196Z,26.86
2023-03-26T11:35:06.197Z,27.05
2023-03-26T11:37:41.131Z,27.05
2023-03-26T11:40:24.565Z,26.72
2023-03-26T11:42:53.406Z,26.47
2023-03-26T11:45:22.288Z,26.17
2023-03-26T11:47:52.432Z,25.82
2023-03-26T11:50:22.837Z,25.37
2023-03-26T11:52:50.972Z,25.08
2023-03-26T11:55:18.091Z,24.95
2023-03-26T11:57:52.386Z,24.93
2023-03-26T12:00:21.199Z,25.21
2023-03-26T12:02:55.011Z,25.59
2023-03-26T12:05:29.632Z,26.00
2023-03-26T12:08:01.039Z,26.17
2023-03-26T12:10:34.890Z,26.37
2023-03-26T12:13:24.102Z,26.46
2023-03-26T12:15:51.890Z,26.73
2023-03-26T12:18:26.674Z,27.20
2023-03-26T12:21:13.341Z,27.67
2023-03-26T12:24:28.238Z,27.81
2023-03-26T12:27:21.816Z,27.49
2023-03-26T12:30:20.763Z,26.85
2023-03-26T12:32:48.343Z,26.17
2023-03-26T12:35:29.432Z,25.60
2023-03-26T12:37:57.991Z,25.06
2023-03-26T12:40:36.820Z,24.60
2023-03-26T12:44:49.265Z,24.00
2023-03-26T12:47:15.134Z,23.45
2023-03-26T12:48:43.677Z,22.99
2023-03-26T12:51:20.924Z,22.59
2023-03-26T12:54:05.572Z,22.36
2023-03-26T12:56:40.191Z,22.17
2023-03-26T12:59:25.760Z,21.92
2023-03-26T13:02:25.601Z,21.62
2023-03-26T13:05:06.200Z,21.35
2023-03-26T13:08:11.312Z,21.18
2023-03-26T13:10:46.560Z,20.98
2023-03-26T13:13:40.652Z,20.88
2023-03-26T13:16:13.519Z,20.68
2023-03-26T13:18:52.066Z,20.51
2023-03-26T13:21:57.274Z,20.36
2023-03-26T13:24:45.715Z,20.28
2023-03-26T13:27:35.246Z,20.14
2023-03-26T13:30:24.264Z,20.12
2023-03-26T13:33:10.237Z,20.09
2023-03-26T13:35:41.209Z,20.10
2023-03-26T13:38:35.816Z,20.09
2023-03-26T13:41:10.080Z,20.09
2023-03-26T13:44:07.873Z,20.17
2023-03-26T13:46:40.449Z,20.11
2023-03-26T13:49:27.686Z,20.03
2023-03-26T13:52:03.517Z,20.01
2023-03-26T13:54:49.122Z,20.00
2023-03-26T13:57:32.210Z,19.99
2023-03-26T14:00:06.424Z,19.94
2023-03-26T14:02:43.428Z,19.90
2023-03-26T14:05:40.199Z,19.88
2023-03-26T14:08:12.891Z,19.85
2023-03-26T14:10:45.770Z,19.80
2023-03-26T14:13:24.926Z,19.72
2023-03-26T14:16:16.372Z,19.66
2023-03-26T14:19:05.037Z,19.57
2023-03-26T14:21:53.420Z,19.47
2023-03-26T14:24:42.468Z,19.42
2023-03-26T14:27:37.494Z,19.38
2023-03-26T14:30:48.296Z,19.33
2023-03-26T14:33:34.195Z,19.29
2023-03-26T14:36:36.627Z,19.26
2023-03-26T14:39:46.702Z,19.23
2023-03-26T14:42:29.083Z,19.16
2023-03-26T14:45:13.136Z,19.05
2023-03-26T14:48:17.660Z,19.00
2023-03-26T14:50:46.700Z,18.92
2023-03-26T14:53:22.062Z,18.88
2023-03-26T14:55:54.595Z,18.85
2023-03-26T14:58:28.096Z,18.77
2023-03-26T15:01:07.468Z,18.45
2023-03-26T15:04:02.193Z,18.27
2023-03-26T15:06:29.188Z,18.17
2023-03-26T15:09:21.983Z,18.10
2023-03-26T15:12:14.664Z,17.93
2023-03-26T15:15:03.397Z,17.75
2023-03-26T15:17:45.234Z,17.70
2023-03-26T15:20:36.743Z,17.64
2023-03-26T15:23:47.474Z,17.56
2023-03-26T15:26:50.546Z,17.50
2023-03-26T15:29:38.852Z,17.31
2023-03-26T15:32:05.855Z,17.08
2023-03-26T15:35:02.778Z,16.72
2023-03-26T15:37:48.064Z,16.28
2023-03-26T15:40:40.489Z,15.83
2023-03-26T15:43:18.388Z,15.47
2023-03-26T15:46:05.386Z,15.27
2023-03-26T15:49:12.018Z,15.18
2023-03-26T15:51:46.343Z,15.18
2023-03-26T15:54:35.691Z,15.22
2023-03-26T15:57:27.576Z,15.14
2023-03-26T15:59:57.776Z,15.05
2023-03-26T16:02:41.870Z,14.95
2023-03-26T16:05:50.951Z,14.83
2023-03-26T16:08:46.786Z,14.68
2023-03-26T16:11:16.156Z,14.64
2023-03-26T16:13:44.828Z,14.52
2023-03-26T16:16:21.515Z,14.47
2023-03-26T16:19:09.452Z,14.47
2023-03-26T16:21:38.882Z,14.18
2023-03-26T16:24:05.850Z,13.76
2023-03-26T16:26:50.233Z,13.29
2023-03-26T16:29:28.803Z,13.10
2023-03-26T16:32:15.712Z,12.80
2023-03-26T16:35:12.812Z,12.61
2023-03-26T16:37:50.739Z,12.70
2023-03-26T16:40:26.276Z,12.66
2023-03-26T16:43:19.414Z,12.61
2023-03-26T16:46:05.530Z,12.57
2023-03-26T16:48:59.593Z,12.72
2023-03-26T16:51:44.434Z,12.72
2023-03-26T16:54:26.985Z,12.80
2023-03-26T16:57:10.868Z,12.74
2023-03-26T17:00:06.405Z,12.77
2023-03-26T17:03:03.754Z,12.66
2023-03-26T17:05:42.419Z,12.70
2023-03-26T17:08:36.385Z,12.65
2023-03-26T17:11:26.785Z,12.66
2023-03-26T17:14:30.871Z,12.75
2023-03-26T17:17:20.465Z,12.85
2023-03-26T17:20:25.574Z,12.95
2023-03-26T17:23:14.574Z,13.01
2023-03-26T17:26:20.313Z,13.07
2023-03-26T17:29:01.859Z,13.13
2023-03-26T17:31:45.556Z,13.16
2023-03-26T17:34:46.800Z,13.25
2023-03-26T17:37:16.419Z,13.31
2023-03-26T17:39:49.717Z,13.36
2023-03-26T17:42:18.986Z,13.29
2023-03-26T17:44:59.810Z,13.07
2023-03-26T17:47:27.149Z,13.05
2023-03-26T17:50:22.812Z,12.79
2023-03-26T17:53:01.371Z,12.86
2023-03-26T17:55:35.564Z,12.89
2023-03-26T17:58:04.068Z,12.88
2023-03-26T18:00:57.533Z,12.85
2023-03-26T18:03:34.272Z,12.84
2023-03-26T18:06:07.066Z,12.82
2023-03-26T18:08:47.153Z,12.85
2023-03-26T18:11:50.956Z,12.88
2023-03-26T18:14:55.685Z,12.91
2023-03-26T18:17:24.151Z,12.94
2023-03-26T18:19:57.208Z,12.87
2023-03-26T18:22:26.304Z,12.93
2023-03-26T18:24:54.520Z,13.00
2023-03-26T18:27:23.241Z,13.10
2023-03-26T18:30:02.441Z,13.14
2023-03-26T18:32:31.339Z,13.15
2023-03-26T18:35:00.762Z,13.18
2023-03-26T18:37:33.388Z,13.11
2023-03-26T18:40:10.056Z,13.12
2023-03-26T18:42:36.892Z,13.07
2023-03-26T18:45:21.817Z,13.07
2023-03-26T18:47:51.815Z,13.05
2023-03-26T18:50:22.573Z,12.98
2023-03-26T18:52:51.602Z,12.97
2023-03-26T18:55:19.331Z,13.01
2023-03-26T18:57:46.268Z,13.10
2023-03-26T19:00:22.638Z,13.11
2023-03-26T19:02:51.315Z,13.09
2023-03-26T19:05:18.796Z,13.23
2023-03-26T19:07:48.495Z,13.08
2023-03-26T19:10:18.924Z,13.12
2023-03-26T19:12:46.601Z,13.10
2023-03-26T19:15:15.641Z,12.95
2023-03-26T19:17:47.506Z,12.86
2023-03-26T19:20:20.459Z,12.81
2023-03-26T19:22:49.031Z,12.74
2023-03-26T19:25:24.389Z,12.77
2023-03-26T19:27:51.961Z,12.60
2023-03-26T19:30:40.605Z,12.55
2023-03-26T19:33:37.665Z,12.50
2023-03-26T19:36:15.090Z,12.37
2023-03-26T19:38:52.338Z,12.38
2023-03-26T19:41:40.560Z,12.43
2023-03-26T19:44:26.590Z,12.43
2023-03-26T19:47:02.728Z,12.42
2023-03-26T19:49:29.651Z,12.41
2023-03-26T19:52:13.142Z,12.45
2023-03-26T19:55:12.233Z,12.52
2023-03-26T19:57:39.836Z,12.45
2023-03-26T20:00:15.178Z,12.47
2023-03-26T20:02:43.076Z,12.52
2023-03-26T20:05:22.974Z,12.52
2023-03-26T20:07:51.800Z,12.41
2023-03-26T20:10:19.335Z,12.37
2023-03-26T20:12:47.337Z,12.28
2023-03-26T20:15:25.481Z,12.29
2023-03-26T20:17:53.773Z,12.33
2023-03-26T20:20:27.638Z,12.34
2023-03-26T20:22:59.010Z,12.33
2023-03-26T20:25:32.767Z,12.37
2023-03-26T20:28:01.081Z,12.41
2023-03-26T20:33:12.457Z,12.30
2023-03-26T20:35:41.904Z,12.27
2023-03-26T20:38:10.571Z,12.26
2023-03-26T20:40:38.358Z,12.28
2023-03-26T20:43:10.514Z,12.29
2023-03-26T20:45:38.654Z,12.23
2023-03-26T20:48:07.158Z,12.19
2023-03-26T20:50:35.969Z,12.16
2023-03-26T20:53:06.527Z,12.18
2023-03-26T20:55:36.965Z,12.18
2023-03-26T20:58:04.644Z,12.17
2023-03-26T21:00:32.498Z,12.09
2023-03-26T21:03:00.479Z,11.99
2023-03-26T21:05:29.260Z,11.90
2023-03-26T21:08:01.628Z,11.84
2023-03-26T21:10:30.684Z,11.67
2023-03-26T21:13:08.371Z,11.71
2023-03-26T21:15:37.608Z,11.58
2023-03-26T21:18:05.877Z,11.48
2023-03-26T21:20:37.857Z,11.56
2023-03-26T21:23:13.301Z,11.41
2023-03-26T21:25:53.251Z,11.45
2023-03-26T21:28:41.901Z,11.35
2023-03-26T21:31:36.654Z,11.32
2023-03-26T21:34:05.937Z,11.33
2023-03-26T21:36:35.738Z,11.37
2023-03-26T21:39:09.029Z,11.33
2023-03-26T21:41:47.534Z,11.36
2023-03-26T21:44:16.994Z,11.32
2023-03-26T21:46:44.776Z,11.28
2023-03-26T21:49:14.356Z,11.35
2023-03-26T21:51:44.001Z,11.14
2023-03-26T21:54:26.378Z,11.11
2023-03-26T21:57:03.778Z,11.12
2023-03-26T21:59:36.769Z,11.16
2023-03-26T22:02:08.326Z,11.10
2023-03-26T22:04:48.524Z,11.10
2023-03-26T22:07:39.531Z,11.13
2023-03-26T22:10:08.853Z,11.08
2023-03-26T22:12:36.673Z,11.10
2023-03-26T22:15:04.845Z,11.15
2023-03-26T22:17:32.843Z,11.14
2023-03-26T22:20:01.631Z,11.08
2023-03-26T22:22:29.748Z,11.02
2023-03-26T22:24:57.896Z,11.07
2023-03-26T22:27:26.009Z,11.05
2023-03-26T22:29:54.450Z,11.06
2023-03-26T22:32:33.163Z,11.03
2023-03-26T22:35:01.093Z,10.96
2023-03-26T22:37:28.848Z,10.99
2023-03-26T22:39:58.584Z,10.97
2023-03-26T22:42:26.798Z,10.92
2023-03-26T22:44:55.298Z,10.86
2023-03-26T22:47:23.650Z,10.92
2023-03-26T22:49:51.662Z,10.90
2023-03-26T22:52:19.865Z,10.84
2023-03-26T22:54:48.030Z,10.79
2023-03-26T22:57:16.537Z,10.79
2023-03-26T22:59:44.925Z,10.75
2023-03-26T23:02:13.204Z,10.75
2023-03-26T23:04:42.636Z,10.58
2023-03-26T23:07:10.778Z,10.41
2023-03-26T23:09:38.518Z,10.32
2023-03-26T23:12:07.028Z,10.28
2023-03-26T23:14:34.945Z,10.25
2023-03-26T23:17:02.657Z,10.16
2023-03-26T23:19:30.682Z,10.16
2023-03-26T23:21:58.855Z,10.15
2023-03-26T23:24:26.646Z,10.18
2023-03-26T23:26:54.753Z,10.22
2023-03-26T23:29:22.835Z,10.44
2023-03-26T23:31:52.989Z,10.31
2023-03-26T23:34:22.270Z,10.32
2023-03-26T23:36:50.425Z,10.28
2023-03-26T23:39:18.815Z,10.23
2023-03-26T23:41:46.978Z,10.18
2023-03-26T23:44:17.158Z,10.13
2023-03-26T23:46:45.391Z,10.09
2023-03-26T23:49:13.732Z,10.07
2023-03-26T23:51:42.299Z,10.11
2023-03-26T23:54:11.684Z,10.15
2023-03-26T23:56:39.700Z,10.10
2023-03-26T23:59:07.501Z,10.04
